sensor_id;sensor_type;location;lat;lon;timestamp;pressure;altitude;pressure_sealevel;temperature;humidity
11190;BME280;5651;50.926;4.718;2022-12-08T00:01:08;101125.28;;;4.61;100.00
11190;BME280;5651;50.926;4.718;2022-12-08T00:03:34;101125.53;;;4.72;100.00
11190;BME280;5651;50.926;4.718;2022-12-08T00:06:02;101121.25;;;4.72;100.00
11190;BME280;5651;50.926;4.718;2022-12-08T00:08:47;101116.16;;;4.75;100.00
11190;BME280;5651;50.926;4.718;2022-12-08T00:11:31;101111.09;;;4.79;100.00
11190;BME280;5651;50.926;4.718;2022-12-08T00:13:57;101114.53;;;4.79;100.00
11190;BME280;5651;50.926;4.718;2022-12-08T00:16:23;101100.53;;;4.69;100.00
11190;BME280;5651;50.926;4.718;2022-12-08T00:18:49;101098.06;;;4.74;100.00
11190;BME280;5651;50.926;4.718;2022-12-08T00:21:15;101093.00;;;4.79;100.00
11190;BME280;5651;50.926;4.718;2022-12-08T00:23:40;101098.31;;;4.85;100.00
11190;BME280;5651;50.926;4.718;2022-12-08T00:26:06;101093.72;;;4.71;100.00
11190;BME280;5651;50.926;4.718;2022-12-08T00:28:33;101084.84;;;4.62;100.00
11190;BME280;5651;50.926;4.718;2022-12-08T00:31:01;101087.38;;;4.58;100.00
11190;BME280;5651;50.926;4.718;2022-12-08T00:33:31;101085.59;;;4.56;100.00
11190;BME280;5651;50.926;4.718;2022-12-08T00:35:57;101078.72;;;4.56;100.00
11190;BME280;5651;50.926;4.718;2022-12-08T00:38:22;101076.28;;;4.63;100.00
11190;BME280;5651;50.926;4.718;2022-12-08T00:40:48;101078.25;;;4.73;100.00
11190;BME280;5651;50.926;4.718;2022-12-08T00:43:14;101073.22;;;4.79;100.00
11190;BME280;5651;50.926;4.718;2022-12-08T00:45:40;101075.81;;;4.79;100.00
11190;BME280;5651;50.926;4.718;2022-12-08T00:48:06;101072.50;;;4.85;100.00
11190;BME280;5651;50.926;4.718;2022-12-08T00:50:32;101070.75;;;4.84;100.00
11190;BME280;5651;50.926;4.718;2022-12-08T00:52:57;101074.03;;;4.76;100.00
11190;BME280;5651;50.926;4.718;2022-12-08T00:55:23;101062.97;;;4.82;100.00
11190;BME280;5651;50.926;4.718;2022-12-08T00:57:49;101064.56;;;4.77;100.00
11190;BME280;5651;50.926;4.718;2022-12-08T01:00:14;101065.31;;;4.71;100.00
11190;BME280;5651;50.926;4.718;2022-12-08T01:02:40;101063.56;;;4.70;100.00
11190;BME280;5651;50.926;4.718;2022-12-08T01:05:06;101062.22;;;4.88;100.00
11190;BME280;5651;50.926;4.718;2022-12-08T01:07:32;101068.03;;;4.78;100.00
11190;BME280;5651;50.926;4.718;2022-12-08T01:09:57;101064.53;;;4.75;100.00
11190;BME280;5651;50.926;4.718;2022-12-08T01:12:23;101059.28;;;4.72;100.00
11190;BME280;5651;50.926;4.718;2022-12-08T01:14:49;101057.66;;;4.76;100.00
11190;BME280;5651;50.926;4.718;2022-12-08T01:17:15;101051.41;;;4.66;100.00
11190;BME280;5651;50.926;4.718;2022-12-08T01:19:40;101045.03;;;4.50;100.00
11190;BME280;5651;50.926;4.718;2022-12-08T01:22:06;101042.25;;;4.42;100.00
11190;BME280;5651;50.926;4.718;2022-12-08T01:24:31;101042.69;;;4.61;100.00
11190;BME280;5651;50.926;4.718;2022-12-08T01:26:57;101043.25;;;4.48;100.00
11190;BME280;5651;50.926;4.718;2022-12-08T01:29:23;101045.38;;;4.64;100.00
11190;BME280;5651;50.926;4.718;2022-12-08T01:31:49;101039.91;;;4.52;100.00
11190;BME280;5651;50.926;4.718;2022-12-08T01:34:14;101041.31;;;4.39;100.00
11190;BME280;5651;50.926;4.718;2022-12-08T01:36:40;101041.25;;;4.36;100.00
11190;BME280;5651;50.926;4.718;2022-12-08T01:39:15;101037.78;;;4.35;100.00
11190;BME280;5651;50.926;4.718;2022-12-08T01:41:42;101050.41;;;4.23;100.00
11190;BME280;5651;50.926;4.718;2022-12-08T01:46:39;101046.78;;;4.16;100.00
11190;BME280;5651;50.926;4.718;2022-12-08T01:49:11;101042.50;;;4.15;100.00
11190;BME280;5651;50.926;4.718;2022-12-08T01:54:16;101038.97;;;4.11;100.00
11190;BME280;5651;50.926;4.718;2022-12-08T01:56:58;101037.31;;;4.15;100.00
11190;BME280;5651;50.926;4.718;2022-12-08T01:59:25;101029.16;;;3.98;100.00
11190;BME280;5651;50.926;4.718;2022-12-08T02:01:53;101034.84;;;3.86;100.00
11190;BME280;5651;50.926;4.718;2022-12-08T02:04:19;101032.50;;;3.94;100.00
11190;BME280;5651;50.926;4.718;2022-12-08T02:06:45;101023.78;;;3.89;100.00
11190;BME280;5651;50.926;4.718;2022-12-08T02:09:13;101023.00;;;3.93;100.00
11190;BME280;5651;50.926;4.718;2022-12-08T02:11:39;101024.00;;;3.98;100.00
11190;BME280;5651;50.926;4.718;2022-12-08T02:14:06;101022.06;;;3.89;100.00
11190;BME280;5651;50.926;4.718;2022-12-08T02:16:54;101027.09;;;3.85;100.00
11190;BME280;5651;50.926;4.718;2022-12-08T02:19:36;101017.72;;;3.87;100.00
11190;BME280;5651;50.926;4.718;2022-12-08T02:22:14;101023.47;;;3.78;100.00
11190;BME280;5651;50.926;4.718;2022-12-08T02:33:08;101011.25;;;3.71;100.00
11190;BME280;5651;50.926;4.718;2022-12-08T02:40:51;101012.94;;;3.69;100.00
11190;BME280;5651;50.926;4.718;2022-12-08T02:43:38;101005.91;;;3.61;100.00
11190;BME280;5651;50.926;4.718;2022-12-08T02:46:18;101010.66;;;3.47;100.00
11190;BME280;5651;50.926;4.718;2022-12-08T02:48:46;101008.09;;;3.47;100.00
11190;BME280;5651;50.926;4.718;2022-12-08T02:51:14;101010.56;;;3.44;100.00
11190;BME280;5651;50.926;4.718;2022-12-08T02:53:40;101000.63;;;3.57;100.00
11190;BME280;5651;50.926;4.718;2022-12-08T02:56:37;101001.22;;;3.48;100.00
11190;BME280;5651;50.926;4.718;2022-12-08T03:10:50;100979.59;;;3.41;100.00
11190;BME280;5651;50.926;4.718;2022-12-08T03:13:24;100981.38;;;3.44;100.00
11190;BME280;5651;50.926;4.718;2022-12-08T03:15:52;100987.88;;;3.31;100.00
11190;BME280;5651;50.926;4.718;2022-12-08T03:18:22;100972.28;;;3.25;100.00
11190;BME280;5651;50.926;4.718;2022-12-08T03:20:51;100972.25;;;3.23;100.00
11190;BME280;5651;50.926;4.718;2022-12-08T03:23:18;100973.78;;;3.16;100.00
11190;BME280;5651;50.926;4.718;2022-12-08T03:25:52;100958.16;;;3.10;100.00
11190;BME280;5651;50.926;4.718;2022-12-08T03:28:21;100962.63;;;3.17;100.00
11190;BME280;5651;50.926;4.718;2022-12-08T03:30:47;100951.28;;;3.11;100.00
11190;BME280;5651;50.926;4.718;2022-12-08T03:33:24;100950.31;;;3.06;100.00
11190;BME280;5651;50.926;4.718;2022-12-08T03:35:52;100943.44;;;3.06;100.00
11190;BME280;5651;50.926;4.718;2022-12-08T03:38:19;100942.75;;;3.12;100.00
11190;BME280;5651;50.926;4.718;2022-12-08T03:40:45;100944.41;;;3.10;100.00
11190;BME280;5651;50.926;4.718;2022-12-08T03:43:29;100937.66;;;3.13;100.00
11190;BME280;5651;50.926;4.718;2022-12-08T03:45:54;100940.47;;;3.23;100.00
11190;BME280;5651;50.926;4.718;2022-12-08T03:48:20;100935.53;;;3.30;100.00
11190;BME280;5651;50.926;4.718;2022-12-08T03:50:46;100937.56;;;3.10;100.00
11190;BME280;5651;50.926;4.718;2022-12-08T03:53:11;100928.34;;;3.19;100.00
11190;BME280;5651;50.926;4.718;2022-12-08T03:55:37;100929.97;;;3.15;100.00
11190;BME280;5651;50.926;4.718;2022-12-08T03:58:03;100927.69;;;3.26;100.00
11190;BME280;5651;50.926;4.718;2022-12-08T04:00:28;100926.19;;;3.34;100.00
11190;BME280;5651;50.926;4.718;2022-12-08T04:02:54;100922.69;;;3.32;100.00
11190;BME280;5651;50.926;4.718;2022-12-08T04:05:20;100921.19;;;3.40;100.00
11190;BME280;5651;50.926;4.718;2022-12-08T04:07:45;100925.56;;;3.44;100.00
11190;BME280;5651;50.926;4.718;2022-12-08T04:10:11;100921.28;;;3.43;100.00
11190;BME280;5651;50.926;4.718;2022-12-08T04:12:37;100919.66;;;3.47;100.00
11190;BME280;5651;50.926;4.718;2022-12-08T04:15:02;100924.81;;;3.47;100.00
11190;BME280;5651;50.926;4.718;2022-12-08T04:17:28;100920.50;;;3.47;100.00
11190;BME280;5651;50.926;4.718;2022-12-08T04:19:54;100923.22;;;3.54;100.00
11190;BME280;5651;50.926;4.718;2022-12-08T04:22:19;100924.94;;;3.53;100.00
11190;BME280;5651;50.926;4.718;2022-12-08T04:24:45;100916.66;;;3.65;100.00
11190;BME280;5651;50.926;4.718;2022-12-08T04:27:11;100915.88;;;3.69;100.00
11190;BME280;5651;50.926;4.718;2022-12-08T04:29:36;100918.31;;;3.63;100.00
11190;BME280;5651;50.926;4.718;2022-12-08T04:32:02;100925.00;;;3.56;100.00
11190;BME280;5651;50.926;4.718;2022-12-08T04:34:28;100912.19;;;3.58;100.00
11190;BME280;5651;50.926;4.718;2022-12-08T04:36:54;100907.06;;;3.59;100.00
11190;BME280;5651;50.926;4.718;2022-12-08T04:39:19;100897.44;;;3.52;100.00
11190;BME280;5651;50.926;4.718;2022-12-08T04:41:45;100903.66;;;3.60;100.00
11190;BME280;5651;50.926;4.718;2022-12-08T04:44:10;100907.34;;;3.72;100.00
11190;BME280;5651;50.926;4.718;2022-12-08T04:46:36;100907.22;;;3.65;100.00
11190;BME280;5651;50.926;4.718;2022-12-08T04:49:02;100907.91;;;3.58;100.00
11190;BME280;5651;50.926;4.718;2022-12-08T04:51:28;100903.16;;;3.75;100.00
11190;BME280;5651;50.926;4.718;2022-12-08T04:53:54;100906.38;;;3.67;100.00
11190;BME280;5651;50.926;4.718;2022-12-08T04:56:19;100910.59;;;3.63;100.00
11190;BME280;5651;50.926;4.718;2022-12-08T04:58:45;100905.47;;;3.64;100.00
11190;BME280;5651;50.926;4.718;2022-12-08T05:01:12;100901.94;;;3.61;100.00
11190;BME280;5651;50.926;4.718;2022-12-08T05:03:37;100903.00;;;3.69;100.00
11190;BME280;5651;50.926;4.718;2022-12-08T05:06:04;100897.19;;;3.78;100.00
11190;BME280;5651;50.926;4.718;2022-12-08T05:08:30;100895.34;;;3.72;100.00
11190;BME280;5651;50.926;4.718;2022-12-08T05:11:04;100891.19;;;3.77;100.00
11190;BME280;5651;50.926;4.718;2022-12-08T05:13:31;100895.38;;;3.74;100.00
11190;BME280;5651;50.926;4.718;2022-12-08T05:16:05;100892.66;;;3.66;100.00
11190;BME280;5651;50.926;4.718;2022-12-08T05:18:32;100884.13;;;3.70;100.00
11190;BME280;5651;50.926;4.718;2022-12-08T05:20:58;100881.66;;;3.75;100.00
11190;BME280;5651;50.926;4.718;2022-12-08T05:23:24;100881.66;;;3.73;100.00
11190;BME280;5651;50.926;4.718;2022-12-08T05:25:49;100890.22;;;3.74;100.00
11190;BME280;5651;50.926;4.718;2022-12-08T05:28:15;100886.25;;;3.87;100.00
11190;BME280;5651;50.926;4.718;2022-12-08T05:30:41;100882.97;;;3.94;100.00
11190;BME280;5651;50.926;4.718;2022-12-08T05:33:06;100883.53;;;3.80;100.00
11190;BME280;5651;50.926;4.718;2022-12-08T05:35:32;100877.59;;;3.85;100.00
11190;BME280;5651;50.926;4.718;2022-12-08T05:37:58;100882.00;;;3.89;100.00
11190;BME280;5651;50.926;4.718;2022-12-08T05:40:24;100877.59;;;3.85;100.00
11190;BME280;5651;50.926;4.718;2022-12-08T05:42:49;100874.50;;;3.63;100.00
11190;BME280;5651;50.926;4.718;2022-12-08T05:45:15;100867.84;;;3.71;100.00
11190;BME280;5651;50.926;4.718;2022-12-08T05:47:41;100870.44;;;3.73;100.00
11190;BME280;5651;50.926;4.718;2022-12-08T05:50:06;100868.44;;;3.61;100.00
11190;BME280;5651;50.926;4.718;2022-12-08T05:52:32;100866.66;;;3.57;100.00
11190;BME280;5651;50.926;4.718;2022-12-08T05:54:58;100871.91;;;3.61;100.00
11190;BME280;5651;50.926;4.718;2022-12-08T05:57:23;100861.78;;;3.69;100.00
11190;BME280;5651;50.926;4.718;2022-12-08T05:59:49;100865.81;;;3.58;100.00
11190;BME280;5651;50.926;4.718;2022-12-08T06:02:15;100857.13;;;3.54;100.00
11190;BME280;5651;50.926;4.718;2022-12-08T06:04:40;100866.78;;;3.63;100.00
11190;BME280;5651;50.926;4.718;2022-12-08T06:07:07;100861.75;;;3.68;100.00
11190;BME280;5651;50.926;4.718;2022-12-08T06:09:33;100868.59;;;3.67;100.00
11190;BME280;5651;50.926;4.718;2022-12-08T06:12:00;100867.06;;;3.75;100.00
11190;BME280;5651;50.926;4.718;2022-12-08T06:14:26;100858.22;;;3.64;100.00
11190;BME280;5651;50.926;4.718;2022-12-08T06:16:52;100863.53;;;3.72;100.00
11190;BME280;5651;50.926;4.718;2022-12-08T06:19:18;100857.66;;;3.76;100.00
11190;BME280;5651;50.926;4.718;2022-12-08T06:21:44;100869.59;;;3.72;100.00
11190;BME280;5651;50.926;4.718;2022-12-08T06:24:10;100859.09;;;3.64;100.00
11190;BME280;5651;50.926;4.718;2022-12-08T06:26:36;100855.72;;;3.67;100.00
11190;BME280;5651;50.926;4.718;2022-12-08T06:29:02;100859.88;;;3.62;100.00
11190;BME280;5651;50.926;4.718;2022-12-08T06:31:29;100855.66;;;3.64;100.00
11190;BME280;5651;50.926;4.718;2022-12-08T06:33:55;100854.72;;;3.60;100.00
11190;BME280;5651;50.926;4.718;2022-12-08T06:36:23;100853.06;;;3.62;100.00
11190;BME280;5651;50.926;4.718;2022-12-08T06:38:50;100858.53;;;3.78;100.00
11190;BME280;5651;50.926;4.718;2022-12-08T06:41:16;100857.59;;;3.74;100.00
11190;BME280;5651;50.926;4.718;2022-12-08T06:43:42;100858.97;;;3.60;100.00
11190;BME280;5651;50.926;4.718;2022-12-08T06:46:10;100856.56;;;3.66;100.00
11190;BME280;5651;50.926;4.718;2022-12-08T06:48:37;100864.19;;;3.61;100.00
11190;BME280;5651;50.926;4.718;2022-12-08T06:51:14;100856.13;;;3.49;100.00
11190;BME280;5651;50.926;4.718;2022-12-08T06:53:41;100854.50;;;3.53;100.00
11190;BME280;5651;50.926;4.718;2022-12-08T06:56:07;100854.66;;;3.59;100.00
11190;BME280;5651;50.926;4.718;2022-12-08T06:58:33;100854.72;;;3.60;100.00
11190;BME280;5651;50.926;4.718;2022-12-08T07:01:11;100856.66;;;3.71;100.00
11190;BME280;5651;50.926;4.718;2022-12-08T07:03:38;100853.19;;;3.69;100.00
11190;BME280;5651;50.926;4.718;2022-12-08T07:06:05;100855.88;;;3.73;100.00
11190;BME280;5651;50.926;4.718;2022-12-08T07:08:32;100860.84;;;3.67;100.00
11190;BME280;5651;50.926;4.718;2022-12-08T07:10:58;100852.19;;;3.63;100.00
11190;BME280;5651;50.926;4.718;2022-12-08T07:13:24;100851.31;;;3.63;100.00
11190;BME280;5651;50.926;4.718;2022-12-08T07:15:49;100857.16;;;3.56;100.00
11190;BME280;5651;50.926;4.718;2022-12-08T07:18:15;100860.91;;;3.69;100.00
11190;BME280;5651;50.926;4.718;2022-12-08T07:20:41;100862.56;;;3.67;100.00
11190;BME280;5651;50.926;4.718;2022-12-08T07:23:07;100851.50;;;3.71;100.00
11190;BME280;5651;50.926;4.718;2022-12-08T07:25:33;100856.84;;;3.78;100.00
11190;BME280;5651;50.926;4.718;2022-12-08T07:27:59;100856.50;;;3.64;100.00
11190;BME280;5651;50.926;4.718;2022-12-08T07:30:24;100852.44;;;3.74;100.00
11190;BME280;5651;50.926;4.718;2022-12-08T07:32:50;100856.63;;;3.69;100.00
11190;BME280;5651;50.926;4.718;2022-12-08T07:35:15;100854.75;;;3.63;100.00
11190;BME280;5651;50.926;4.718;2022-12-08T07:37:41;100855.00;;;3.73;100.00
11190;BME280;5651;50.926;4.718;2022-12-08T07:40:07;100857.44;;;3.68;100.00
11190;BME280;5651;50.926;4.718;2022-12-08T07:42:34;100855.44;;;3.56;100.00
11190;BME280;5651;50.926;4.718;2022-12-08T07:44:59;100854.47;;;3.51;100.00
11190;BME280;5651;50.926;4.718;2022-12-08T07:47:25;100846.75;;;3.51;100.00
11190;BME280;5651;50.926;4.718;2022-12-08T07:49:51;100847.03;;;3.63;100.00
11190;BME280;5651;50.926;4.718;2022-12-08T07:52:16;100846.06;;;3.58;100.00
11190;BME280;5651;50.926;4.718;2022-12-08T07:54:42;100842.06;;;3.70;100.00
11190;BME280;5651;50.926;4.718;2022-12-08T07:57:08;100840.78;;;3.54;100.00
11190;BME280;5651;50.926;4.718;2022-12-08T07:59:34;100840.06;;;3.58;100.00
11190;BME280;5651;50.926;4.718;2022-12-08T08:02:00;100841.97;;;3.67;100.00
11190;BME280;5651;50.926;4.718;2022-12-08T08:04:26;100844.34;;;3.59;100.00
11190;BME280;5651;50.926;4.718;2022-12-08T08:06:51;100845.59;;;3.75;100.00
11190;BME280;5651;50.926;4.718;2022-12-08T08:09:17;100847.16;;;3.68;100.00
11190;BME280;5651;50.926;4.718;2022-12-08T08:11:43;100842.06;;;3.71;100.00
11190;BME280;5651;50.926;4.718;2022-12-08T08:14:08;100845.16;;;3.56;100.00
11190;BME280;5651;50.926;4.718;2022-12-08T08:16:34;100848.66;;;3.60;100.00
11190;BME280;5651;50.926;4.718;2022-12-08T08:19:00;100845.41;;;3.67;100.00
11190;BME280;5651;50.926;4.718;2022-12-08T08:21:25;100848.97;;;3.72;100.00
11190;BME280;5651;50.926;4.718;2022-12-08T08:23:51;100843.59;;;3.63;100.00
11190;BME280;5651;50.926;4.718;2022-12-08T08:26:17;100838.53;;;3.66;100.00
11190;BME280;5651;50.926;4.718;2022-12-08T08:28:42;100845.63;;;3.76;100.00
11190;BME280;5651;50.926;4.718;2022-12-08T08:31:11;100839.47;;;3.70;100.00
11190;BME280;5651;50.926;4.718;2022-12-08T08:33:37;100839.53;;;3.73;100.00
11190;BME280;5651;50.926;4.718;2022-12-08T08:36:09;100838.84;;;3.81;100.00
11190;BME280;5651;50.926;4.718;2022-12-08T08:38:35;100849.28;;;3.86;100.00
11190;BME280;5651;50.926;4.718;2022-12-08T08:41:08;100834.75;;;3.90;100.00
11190;BME280;5651;50.926;4.718;2022-12-08T08:43:34;100838.09;;;3.86;100.00
11190;BME280;5651;50.926;4.718;2022-12-08T08:46:01;100836.44;;;3.88;100.00
11190;BME280;5651;50.926;4.718;2022-12-08T08:48:28;100836.38;;;3.85;100.00
11190;BME280;5651;50.926;4.718;2022-12-08T08:50:55;100834.63;;;3.84;100.00
11190;BME280;5651;50.926;4.718;2022-12-08T08:53:22;100832.34;;;3.97;100.00
11190;BME280;5651;50.926;4.718;2022-12-08T08:55:48;100837.41;;;3.93;100.00
11190;BME280;5651;50.926;4.718;2022-12-08T08:58:14;100840.94;;;3.98;100.00
11190;BME280;5651;50.926;4.718;2022-12-08T09:00:40;100836.81;;;4.05;100.00
11190;BME280;5651;50.926;4.718;2022-12-08T09:03:05;100834.84;;;3.93;100.00
11190;BME280;5651;50.926;4.718;2022-12-08T09:05:31;100827.94;;;3.92;100.00
11190;BME280;5651;50.926;4.718;2022-12-08T09:07:57;100822.97;;;4.00;100.00
11190;BME280;5651;50.926;4.718;2022-12-08T09:10:22;100821.31;;;4.03;100.00
11190;BME280;5651;50.926;4.718;2022-12-08T09:12:48;100832.41;;;4.01;100.00
11190;BME280;5651;50.926;4.718;2022-12-08T09:15:14;100828.84;;;3.94;100.00
11190;BME280;5651;50.926;4.718;2022-12-08T09:17:40;100829.75;;;3.96;100.00
11190;BME280;5651;50.926;4.718;2022-12-08T09:20:06;100824.75;;;4.04;100.00
11190;BME280;5651;50.926;4.718;2022-12-08T09:22:32;100820.44;;;4.04;100.00
11190;BME280;5651;50.926;4.718;2022-12-08T09:24:57;100816.09;;;4.02;100.00
11190;BME280;5651;50.926;4.718;2022-12-08T09:27:23;100829.19;;;4.09;100.00
11190;BME280;5651;50.926;4.718;2022-12-08T09:29:49;100822.31;;;4.10;100.00
11190;BME280;5651;50.926;4.718;2022-12-08T09:32:14;100820.78;;;4.20;100.00
11190;BME280;5651;50.926;4.718;2022-12-08T09:34:40;100820.75;;;4.18;100.00
11190;BME280;5651;50.926;4.718;2022-12-08T09:37:06;100824.84;;;4.07;100.00
11190;BME280;5651;50.926;4.718;2022-12-08T09:39:32;100818.78;;;4.06;100.00
11190;BME280;5651;50.926;4.718;2022-12-08T09:42:00;100828.34;;;4.10;100.00
11190;BME280;5651;50.926;4.718;2022-12-08T09:47:15;100824.16;;;4.16;100.00
11190;BME280;5651;50.926;4.718;2022-12-08T09:49:47;100825.16;;;4.22;100.00
11190;BME280;5651;50.926;4.718;2022-12-08T09:52:25;100823.66;;;4.34;100.00
11190;BME280;5651;50.926;4.718;2022-12-08T09:54:54;100825.44;;;4.36;100.00
11190;BME280;5651;50.926;4.718;2022-12-08T09:57:23;100821.97;;;4.34;99.84
11190;BME280;5651;50.926;4.718;2022-12-08T09:59:56;100820.22;;;4.33;100.00
11190;BME280;5651;50.926;4.718;2022-12-08T10:02:23;100810.75;;;4.34;99.71
11190;BME280;5651;50.926;4.718;2022-12-08T10:04:50;100811.66;;;4.34;100.00
11190;BME280;5651;50.926;4.718;2022-12-08T10:15:40;100808.09;;;4.29;100.00
11190;BME280;5651;50.926;4.718;2022-12-08T10:18:15;100806.44;;;4.33;100.00
11190;BME280;5651;50.926;4.718;2022-12-08T10:20:43;100799.59;;;4.33;100.00
11190;BME280;5651;50.926;4.718;2022-12-08T10:25:49;100814.75;;;4.18;100.00
11190;BME280;5651;50.926;4.718;2022-12-08T10:28:15;100803.00;;;4.32;100.00
11190;BME280;5651;50.926;4.718;2022-12-08T10:30:41;100805.63;;;4.35;100.00
11190;BME280;5651;50.926;4.718;2022-12-08T10:33:19;100791.88;;;4.36;100.00
11190;BME280;5651;50.926;4.718;2022-12-08T10:35:50;100792.09;;;4.47;100.00
11190;BME280;5651;50.926;4.718;2022-12-08T10:38:22;100791.13;;;4.40;100.00
11190;BME280;5651;50.926;4.718;2022-12-08T10:40:50;100789.44;;;4.42;100.00
11190;BME280;5651;50.926;4.718;2022-12-08T10:43:21;100782.50;;;4.40;99.81
11190;BME280;5651;50.926;4.718;2022-12-08T10:45:48;100781.75;;;4.46;99.90
11190;BME280;5651;50.926;4.718;2022-12-08T10:48:18;100780.09;;;4.48;100.00
11190;BME280;5651;50.926;4.718;2022-12-08T10:53:18;100776.28;;;4.28;99.23
11190;BME280;5651;50.926;4.718;2022-12-08T10:58:35;100772.28;;;4.44;99.90
11190;BME280;5651;50.926;4.718;2022-12-08T11:01:05;100771.22;;;4.35;100.00
11190;BME280;5651;50.926;4.718;2022-12-08T11:03:56;100766.06;;;4.35;99.94
11190;BME280;5651;50.926;4.718;2022-12-08T11:06:42;100770.00;;;4.16;100.00
11190;BME280;5651;50.926;4.718;2022-12-08T11:11:50;100763.25;;;4.22;100.00
11190;BME280;5651;50.926;4.718;2022-12-08T11:20:00;100751.44;;;4.35;99.32
11190;BME280;5651;50.926;4.718;2022-12-08T11:22:30;100753.44;;;4.49;99.02
11190;BME280;5651;50.926;4.718;2022-12-08T11:27:42;100739.13;;;4.66;98.70
11190;BME280;5651;50.926;4.718;2022-12-08T11:30:18;100730.72;;;4.78;100.00
11190;BME280;5651;50.926;4.718;2022-12-08T11:32:47;100721.53;;;4.94;99.83
11190;BME280;5651;50.926;4.718;2022-12-08T11:35:22;100723.47;;;5.07;98.23
11190;BME280;5651;50.926;4.718;2022-12-08T11:37:50;100719.34;;;5.19;98.96
11190;BME280;5651;50.926;4.718;2022-12-08T11:40:37;100717.06;;;5.39;98.19
11190;BME280;5651;50.926;4.718;2022-12-08T11:46:00;100717.44;;;5.67;96.04
11190;BME280;5651;50.926;4.718;2022-12-08T11:48:32;100709.59;;;5.61;97.18
11190;BME280;5651;50.926;4.718;2022-12-08T11:53:37;100714.38;;;5.97;95.56
11190;BME280;5651;50.926;4.718;2022-12-08T11:56:15;100705.03;;;6.04;96.30
11190;BME280;5651;50.926;4.718;2022-12-08T11:58:55;100698.97;;;6.03;97.79
11190;BME280;5651;50.926;4.718;2022-12-08T12:01:24;100695.66;;;6.17;96.71
11190;BME280;5651;50.926;4.718;2022-12-08T12:04:00;100701.44;;;5.97;93.90
11190;BME280;5651;50.926;4.718;2022-12-08T12:07:08;100699.97;;;6.16;93.77
11190;BME280;5651;50.926;4.718;2022-12-08T12:18:07;100692.16;;;6.10;92.00
11190;BME280;5651;50.926;4.718;2022-12-08T12:21:05;100687.66;;;5.98;92.53
11190;BME280;5651;50.926;4.718;2022-12-08T12:23:38;100691.09;;;5.97;93.60
11190;BME280;5651;50.926;4.718;2022-12-08T12:26:07;100685.13;;;6.01;92.98
11190;BME280;5651;50.926;4.718;2022-12-08T12:28:43;100688.59;;;6.02;93.56
11190;BME280;5651;50.926;4.718;2022-12-08T12:31:24;100681.13;;;6.30;94.93
11190;BME280;5651;50.926;4.718;2022-12-08T12:33:54;100667.28;;;6.25;91.27
11190;BME280;5651;50.926;4.718;2022-12-08T12:36:21;100671.69;;;6.33;92.36
11190;BME280;5651;50.926;4.718;2022-12-08T12:38:52;100679.44;;;6.33;92.27
11190;BME280;5651;50.926;4.718;2022-12-08T12:44:07;100676.75;;;6.23;92.43
11190;BME280;5651;50.926;4.718;2022-12-08T13:02:37;100684.31;;;6.04;91.19
11190;BME280;5651;50.926;4.718;2022-12-08T13:07:58;100668.78;;;6.02;91.17
11190;BME280;5651;50.926;4.718;2022-12-08T13:10:38;100674.84;;;6.05;91.56
11190;BME280;5651;50.926;4.718;2022-12-08T13:18:46;100678.13;;;5.94;92.98
11190;BME280;5651;50.926;4.718;2022-12-08T13:21:16;100667.72;;;5.90;93.23
11190;BME280;5651;50.926;4.718;2022-12-08T13:23:45;100660.84;;;5.90;92.78
11190;BME280;5651;50.926;4.718;2022-12-08T13:26:20;100667.66;;;5.82;93.10
11190;BME280;5651;50.926;4.718;2022-12-08T13:31:45;100654.78;;;5.88;95.21
11190;BME280;5651;50.926;4.718;2022-12-08T13:34:18;100656.59;;;5.95;94.53
11190;BME280;5651;50.926;4.718;2022-12-08T13:37:01;100656.53;;;5.89;92.18
11190;BME280;5651;50.926;4.718;2022-12-08T13:44:54;100636.75;;;5.93;91.56
11190;BME280;5651;50.926;4.718;2022-12-08T13:47:27;100640.94;;;5.81;93.24
11190;BME280;5651;50.926;4.718;2022-12-08T13:55:32;100628.97;;;5.91;92.96
11190;BME280;5651;50.926;4.718;2022-12-08T13:57:59;100636.94;;;6.07;88.84
11190;BME280;5651;50.926;4.718;2022-12-08T14:00:25;100633.19;;;5.81;89.04
11190;BME280;5651;50.926;4.718;2022-12-08T14:02:58;100636.44;;;5.65;89.60
11190;BME280;5651;50.926;4.718;2022-12-08T14:05:27;100648.66;;;5.80;88.62
11190;BME280;5651;50.926;4.718;2022-12-08T14:08:05;100642.47;;;5.67;90.18
11190;BME280;5651;50.926;4.718;2022-12-08T14:10:34;100650.19;;;5.64;90.14
11190;BME280;5651;50.926;4.718;2022-12-08T14:13:02;100662.84;;;5.42;91.42
11190;BME280;5651;50.926;4.718;2022-12-08T14:15:31;100675.00;;;4.91;92.57
11190;BME280;5651;50.926;4.718;2022-12-08T14:17:56;100683.75;;;4.99;93.04
11190;BME280;5651;50.926;4.718;2022-12-08T14:20:26;100678.19;;;4.74;93.83
11190;BME280;5651;50.926;4.718;2022-12-08T14:22:52;100678.16;;;4.73;94.07
11190;BME280;5651;50.926;4.718;2022-12-08T14:25:19;100674.53;;;4.62;94.88
11190;BME280;5651;50.926;4.718;2022-12-08T14:27:47;100674.88;;;4.33;94.77
11190;BME280;5651;50.926;4.718;2022-12-08T14:32:56;100670.44;;;4.24;94.73
11190;BME280;5651;50.926;4.718;2022-12-08T14:35:36;100667.50;;;4.05;95.83
11190;BME280;5651;50.926;4.718;2022-12-08T14:38:04;100676.94;;;4.03;96.30
11190;BME280;5651;50.926;4.718;2022-12-08T14:40:35;100675.31;;;4.08;95.05
11190;BME280;5651;50.926;4.718;2022-12-08T15:01:27;100677.47;;;3.87;96.96
11190;BME280;5651;50.926;4.718;2022-12-08T15:04:00;100682.50;;;3.80;97.40
11190;BME280;5651;50.926;4.718;2022-12-08T15:06:26;100673.06;;;3.81;98.30
11190;BME280;5651;50.926;4.718;2022-12-08T15:08:55;100677.47;;;3.87;97.59
11190;BME280;5651;50.926;4.718;2022-12-08T15:13:50;100679.97;;;3.84;97.61
11190;BME280;5651;50.926;4.718;2022-12-08T15:21:40;100666.16;;;3.80;98.99
11190;BME280;5651;50.926;4.718;2022-12-08T15:24:10;100673.06;;;3.83;98.93
11190;BME280;5651;50.926;4.718;2022-12-08T15:26:45;100671.41;;;3.85;98.63
11190;BME280;5651;50.926;4.718;2022-12-08T15:29:19;100673.22;;;3.89;97.65
11190;BME280;5651;50.926;4.718;2022-12-08T15:31:46;100667.16;;;3.87;98.29
11190;BME280;5651;50.926;4.718;2022-12-08T15:34:12;100668.75;;;3.81;98.90